Time;durP1;ratioP1;P1;durP2;ratioP2;P2;SDS_P1;SDS_P2;PMS_P1;PMS_P2;Temp;Humidity;BMP_temperature;BMP_pressure;BME280_temperature;BME280_humidity;BME280_pressure;Samples;Min_cycle;Max_cycle;Signal;HPM_P1;HPM_P2
2023/09/25 00:02:24;;;;;;;3.90;2.63;;;;;;;;;;5052036;28;20201;-74
2023/09/25 00:04:51;;;;;;;4.03;2.45;;;;;;;;;;5051615;28;20237;-74
2023/09/25 00:07:17;;;;;;;2.38;2.08;;;;;;;;;;5051580;28;20278;-74
2023/09/25 00:09:43;;;;;;;2.20;2.10;;;;;;;;;;5052276;28;20232;-74
2023/09/25 00:12:11;;;;;;;3.38;2.22;;;;;;;;;;5051675;28;20212;-74
2023/09/25 00:14:37;;;;;;;3.25;2.35;;;;;;;;;;5051618;28;20589;-74
2023/09/25 00:17:04;;;;;;;3.78;2.70;;;;;;;;;;5051748;28;20205;-74
2023/09/25 00:19:31;;;;;;;3.17;2.70;;;;;;;;;;5051855;28;20220;-74
2023/09/25 00:21:57;;;;;;;3.50;2.70;;;;;;;;;;5051662;28;20656;-74
2023/09/25 00:24:23;;;;;;;3.53;2.47;;;;;;;;;;5051567;28;20232;-74
2023/09/25 00:26:50;;;;;;;2.47;2.28;;;;;;;;;;5051842;28;20244;-74
2023/09/25 00:29:18;;;;;;;2.75;2.55;;;;;;;;;;5051666;28;20204;-74
2023/09/25 00:31:44;;;;;;;2.63;2.42;;;;;;;;;;5051728;28;20228;-74
2023/09/25 00:34:10;;;;;;;2.47;2.30;;;;;;;;;;5051738;28;20209;-74
2023/09/25 00:36:37;;;;;;;2.35;2.20;;;;;;;;;;5051346;28;20225;-74
2023/09/25 00:39:05;;;;;;;2.83;2.63;;;;;;;;;;5051782;28;20236;-74
2023/09/25 00:41:32;;;;;;;3.55;2.85;;;;;;;;;;5051886;28;20201;-75
2023/09/25 00:43:58;;;;;;;3.75;2.45;;;;;;;;;;5051644;28;20692;-75
2023/09/25 00:46:26;;;;;;;3.20;2.40;;;;;;;;;;5051571;28;20251;-75
2023/09/25 00:48:52;;;;;;;2.72;2.53;;;;;;;;;;5051470;28;20201;-75
2023/09/25 00:51:19;;;;;;;2.53;2.33;;;;;;;;;;5051417;28;20200;-75
2023/09/25 00:53:47;;;;;;;6.03;2.60;;;;;;;;;;5051397;28;20205;-75
2023/09/25 00:56:13;;;;;;;4.97;2.58;;;;;;;;;;5051566;28;20221;-75
2023/09/25 00:58:39;;;;;;;3.65;2.80;;;;;;;;;;5056204;28;20204;-75
2023/09/25 01:01:07;;;;;;;2.92;2.58;;;;;;;;;;5051273;28;20691;-75
2023/09/25 01:03:35;;;;;;;2.45;2.28;;;;;;;;;;5051374;28;20205;-75
2023/09/25 01:06:04;;;;;;;2.92;2.72;;;;;;;;;;5051012;28;20278;-75
2023/09/25 01:08:31;;;;;;;2.80;2.50;;;;;;;;;;5051359;28;20209;-75
2023/09/25 01:10:58;;;;;;;2.45;2.35;;;;;;;;;;5052238;28;20212;-75
2023/09/25 01:13:25;;;;;;;2.50;2.40;;;;;;;;;;5055109;28;20209;-74
2023/09/25 01:15:51;;;;;;;2.80;2.60;;;;;;;;;;5054908;28;20217;-74
2023/09/25 01:18:18;;;;;;;2.47;2.28;;;;;;;;;;5054864;28;20219;-74
2023/09/25 01:20:46;;;;;;;2.60;2.40;;;;;;;;;;5054825;28;20197;-74
2023/09/25 01:23:14;;;;;;;2.10;2.00;;;;;;;;;;5055043;28;20206;-75
2023/09/25 01:25:40;;;;;;;2.28;2.17;;;;;;;;;;5054923;28;20229;-75
2023/09/25 01:28:06;;;;;;;2.60;2.42;;;;;;;;;;5054752;28;20205;-75
2023/09/25 01:30:33;;;;;;;2.15;2.05;;;;;;;;;;5054845;28;20212;-75
2023/09/25 01:32:59;;;;;;;2.65;2.47;;;;;;;;;;5054802;28;20197;-75
2023/09/25 01:35:26;;;;;;;2.65;2.00;;;;;;;;;;5054278;28;20236;-75
2023/09/25 01:37:55;;;;;;;3.20;2.08;;;;;;;;;;5054585;28;20268;-75
2023/09/25 01:40:24;;;;;;;3.30;2.65;;;;;;;;;;5054713;28;20201;-75
2023/09/25 01:42:50;;;;;;;4.18;2.38;;;;;;;;;;5054433;28;20604;-75
2023/09/25 01:45:18;;;;;;;3.13;2.55;;;;;;;;;;5054324;28;20225;-75
2023/09/25 01:47:49;;;;;;;2.80;2.15;;;;;;;;;;5054140;28;20219;-75
2023/09/25 01:50:16;;;;;;;2.60;2.50;;;;;;;;;;5054578;28;20208;-75
2023/09/25 01:52:42;;;;;;;2.53;2.30;;;;;;;;;;5054568;28;20666;-75
2023/09/25 01:55:08;;;;;;;2.60;2.40;;;;;;;;;;5054300;28;20248;-75
2023/09/25 01:57:36;;;;;;;3.83;2.40;;;;;;;;;;5054086;28;20201;-74
2023/09/25 02:00:07;;;;;;;2.80;2.53;;;;;;;;;;5054244;28;20274;-75
2023/09/25 02:02:34;;;;;;;2.63;2.53;;;;;;;;;;5054029;28;20197;-75
2023/09/25 02:05:00;;;;;;;3.45;2.60;;;;;;;;;;5054194;28;20229;-75
2023/09/25 02:07:26;;;;;;;2.25;2.15;;;;;;;;;;5053934;28;20248;-75
2023/09/25 02:09:52;;;;;;;3.45;2.60;;;;;;;;;;5054112;28;20204;-74
2023/09/25 02:12:19;;;;;;;2.83;2.45;;;;;;;;;;5054242;28;20197;-74
2023/09/25 02:14:46;;;;;;;3.28;2.60;;;;;;;;;;5054100;28;20208;-74
2023/09/25 02:17:13;;;;;;;2.55;2.15;;;;;;;;;;5053588;28;20220;-74
2023/09/25 02:19:39;;;;;;;2.30;2.20;;;;;;;;;;5054058;28;20204;-74
2023/09/25 02:22:06;;;;;;;2.75;2.55;;;;;;;;;;5053778;28;20203;-74
2023/09/25 02:24:32;;;;;;;3.35;3.05;;;;;;;;;;5053633;28;20197;-74
2023/09/25 02:26:59;;;;;;;4.40;2.83;;;;;;;;;;5053633;28;20224;-75
2023/09/25 02:29:25;;;;;;;2.50;2.30;;;;;;;;;;5053605;28;20201;-75
2023/09/25 02:31:53;;;;;;;3.58;2.63;;;;;;;;;;5053583;28;20587;-75
2023/09/25 02:34:19;;;;;;;2.75;2.55;;;;;;;;;;5053795;28;20197;-74
2023/09/25 02:36:45;;;;;;;2.40;2.30;;;;;;;;;;5053399;28;20232;-74
2023/09/25 02:39:13;;;;;;;2.75;2.55;;;;;;;;;;5053512;28;20215;-74
2023/09/25 02:41:39;;;;;;;2.63;2.40;;;;;;;;;;5053431;28;20206;-74
2023/09/25 02:44:06;;;;;;;2.22;2.00;;;;;;;;;;5053316;28;20201;-74
2023/09/25 02:46:32;;;;;;;2.72;2.50;;;;;;;;;;5053159;28;20783;-74
2023/09/25 02:49:00;;;;;;;2.72;2.53;;;;;;;;;;5053156;28;20201;-74
2023/09/25 02:51:26;;;;;;;2.83;2.50;;;;;;;;;;5053339;28;20556;-75
2023/09/25 02:53:53;;;;;;;2.50;2.40;;;;;;;;;;5053327;28;20201;-75
2023/09/25 02:56:19;;;;;;;2.50;2.40;;;;;;;;;;5052999;28;20638;-75
2023/09/25 02:58:46;;;;;;;2.40;2.30;;;;;;;;;;5052794;28;20673;-73
2023/09/25 03:01:12;;;;;;;2.70;2.50;;;;;;;;;;5053313;28;20224;-74
2023/09/25 03:03:39;;;;;;;2.20;2.17;;;;;;;;;;5053447;28;20204;-74
2023/09/25 03:06:07;;;;;;;2.83;2.47;;;;;;;;;;5053977;28;20221;-73
2023/09/25 03:08:33;;;;;;;2.35;2.25;;;;;;;;;;5054251;28;20212;-74
2023/09/25 03:10:59;;;;;;;3.45;2.40;;;;;;;;;;5052896;28;20567;-74
2023/09/25 03:13:26;;;;;;;2.55;2.45;;;;;;;;;;5052807;28;20200;-74
2023/09/25 03:15:52;;;;;;;2.40;2.30;;;;;;;;;;5053237;28;20217;-73
2023/09/25 03:18:18;;;;;;;4.47;1.90;;;;;;;;;;5052955;28;20266;-73
2023/09/25 03:20:44;;;;;;;6.05;2.10;;;;;;;;;;5052976;28;20200;-73
2023/09/25 03:23:12;;;;;;;2.30;2.20;;;;;;;;;;5052653;28;20226;-75
2023/09/25 03:25:40;;;;;;;2.70;2.60;;;;;;;;;;5052369;28;20225;-73
2023/09/25 03:28:07;;;;;;;2.35;2.17;;;;;;;;;;5052502;28;20506;-73
2023/09/25 03:30:33;;;;;;;2.63;2.42;;;;;;;;;;5052641;28;20229;-73
2023/09/25 03:32:59;;;;;;;4.63;2.25;;;;;;;;;;5052176;28;20208;-73
2023/09/25 03:35:26;;;;;;;2.40;2.30;;;;;;;;;;5052100;28;20229;-73
2023/09/25 03:37:52;;;;;;;3.15;2.95;;;;;;;;;;5052372;28;20209;-73
2023/09/25 03:40:20;;;;;;;3.88;2.40;;;;;;;;;;5052358;28;20201;-73
2023/09/25 03:42:46;;;;;;;2.30;2.20;;;;;;;;;;5052513;28;20208;-73
2023/09/25 03:45:13;;;;;;;2.20;2.10;;;;;;;;;;5052565;28;20225;-73
2023/09/25 03:47:39;;;;;;;2.28;2.17;;;;;;;;;;5052222;28;20369;-73
2023/09/25 03:50:06;;;;;;;2.25;2.13;;;;;;;;;;5052213;28;20209;-73
2023/09/25 03:52:32;;;;;;;2.50;2.30;;;;;;;;;;5052091;28;20295;-73
2023/09/25 03:54:58;;;;;;;2.45;2.30;;;;;;;;;;5052127;28;20224;-73
2023/09/25 03:57:26;;;;;;;2.40;2.20;;;;;;;;;;5051998;28;20205;-73
2023/09/25 03:59:52;;;;;;;2.88;2.67;;;;;;;;;;5052193;28;20236;-74
2023/09/25 04:02:18;;;;;;;2.40;2.28;;;;;;;;;;5051928;28;20572;-74
2023/09/25 04:04:45;;;;;;;2.42;2.22;;;;;;;;;;5051999;28;20205;-74
2023/09/25 04:07:11;;;;;;;2.72;2.30;;;;;;;;;;5051740;28;20697;-74
2023/09/25 04:09:37;;;;;;;2.60;2.50;;;;;;;;;;5052109;28;20293;-74
2023/09/25 04:12:04;;;;;;;2.60;2.17;;;;;;;;;;5052045;28;20224;-74
2023/09/25 04:14:35;;;;;;;2.90;2.70;;;;;;;;;;5051934;28;20236;-74
2023/09/25 04:17:01;;;;;;;2.55;2.45;;;;;;;;;;5051796;28;20217;-75
2023/09/25 04:19:28;;;;;;;3.42;2.80;;;;;;;;;;5051790;28;20197;-75
2023/09/25 04:21:54;;;;;;;2.50;2.30;;;;;;;;;;5051820;28;20205;-75
2023/09/25 04:24:20;;;;;;;3.10;2.80;;;;;;;;;;5052149;28;20223;-75
2023/09/25 04:26:48;;;;;;;2.65;2.45;;;;;;;;;;5051621;28;20227;-75
2023/09/25 04:29:17;;;;;;;2.85;2.65;;;;;;;;;;5051613;28;20201;-74
2023/09/25 04:31:46;;;;;;;2.95;2.45;;;;;;;;;;5051642;28;20208;-75
2023/09/25 04:34:12;;;;;;;3.03;2.65;;;;;;;;;;5051579;28;20263;-74
2023/09/25 04:36:39;;;;;;;3.75;2.50;;;;;;;;;;5051216;28;20236;-74
2023/09/25 04:39:08;;;;;;;2.88;2.67;;;;;;;;;;5051404;28;20691;-75
2023/09/25 04:41:36;;;;;;;2.53;2.40;;;;;;;;;;5051751;28;20227;-75
2023/09/25 04:44:04;;;;;;;2.80;2.60;;;;;;;;;;5051850;28;20207;-75
2023/09/25 04:46:31;;;;;;;2.40;2.20;;;;;;;;;;5053268;28;20228;-75
2023/09/25 04:49:00;;;;;;;2.55;2.45;;;;;;;;;;5055314;28;20205;-75
2023/09/25 04:51:26;;;;;;;2.92;2.30;;;;;;;;;;5055599;28;20201;-78
2023/09/25 04:53:52;;;;;;;4.57;2.63;;;;;;;;;;5055479;28;20201;-70
2023/09/25 04:56:20;;;;;;;3.20;2.35;;;;;;;;;;5055141;28;20563;-70
2023/09/25 04:58:46;;;;;;;2.92;2.70;;;;;;;;;;5055277;28;20200;-70
2023/09/25 05:01:12;;;;;;;2.75;2.60;;;;;;;;;;5055294;28;20205;-71
2023/09/25 05:03:40;;;;;;;4.35;2.30;;;;;;;;;;5055167;28;20205;-70
2023/09/25 05:06:08;;;;;;;2.60;2.40;;;;;;;;;;5054679;28;20227;-70
2023/09/25 05:08:34;;;;;;;2.90;2.65;;;;;;;;;;5055104;28;20204;-70
2023/09/25 05:11:00;;;;;;;3.60;3.38;;;;;;;;;;5056139;28;20201;-72
2023/09/25 05:13:26;;;;;;;3.67;2.72;;;;;;;;;;5055568;28;20208;-71
2023/09/25 05:15:54;;;;;;;3.20;2.90;;;;;;;;;;5055085;28;20583;-71
2023/09/25 05:18:21;;;;;;;2.70;2.60;;;;;;;;;;5055378;28;20236;-70
2023/09/25 05:20:48;;;;;;;3.67;2.80;;;;;;;;;;5056268;28;20731;-71
2023/09/25 05:23:18;;;;;;;3.10;2.70;;;;;;;;;;5056257;28;20208;-71
2023/09/25 05:25:45;;;;;;;4.32;2.65;;;;;;;;;;5055091;28;20225;-71
2023/09/25 05:28:11;;;;;;;3.88;2.90;;;;;;;;;;5054904;28;20221;-71
2023/09/25 05:30:37;;;;;;;2.65;2.45;;;;;;;;;;5054872;28;20197;-71
2023/09/25 05:33:04;;;;;;;3.03;2.67;;;;;;;;;;5054961;28;20208;-71
2023/09/25 05:35:30;;;;;;;2.88;2.70;;;;;;;;;;5054895;28;20229;-71
2023/09/25 05:37:57;;;;;;;2.72;2.53;;;;;;;;;;5054784;28;20202;-72
2023/09/25 05:40:25;;;;;;;5.13;2.85;;;;;;;;;;5054890;28;20580;-71
2023/09/25 05:42:51;;;;;;;3.67;3.15;;;;;;;;;;5054888;28;20200;-71
2023/09/25 05:45:17;;;;;;;6.35;3.50;;;;;;;;;;5054609;28;20237;-71
2023/09/25 05:47:44;;;;;;;3.38;3.13;;;;;;;;;;5054609;28;20225;-71
2023/09/25 05:50:11;;;;;;;5.03;3.22;;;;;;;;;;5054782;28;20212;-71
2023/09/25 05:52:38;;;;;;;3.28;3.00;;;;;;;;;;5054588;28;20211;-71
2023/09/25 05:55:05;;;;;;;3.65;3.35;;;;;;;;;;5054603;28;20217;-71
2023/09/25 05:57:33;;;;;;;3.85;3.20;;;;;;;;;;5053730;28;20201;-70
2023/09/25 06:00:00;;;;;;;4.30;3.40;;;;;;;;;;5054183;28;20205;-71
2023/09/25 06:02:27;;;;;;;6.45;3.50;;;;;;;;;;5054630;28;20232;-71
2023/09/25 06:04:53;;;;;;;3.35;3.05;;;;;;;;;;5054480;28;20209;-71
2023/09/25 06:07:20;;;;;;;3.35;3.13;;;;;;;;;;5054012;28;20221;-71
2023/09/25 06:09:46;;;;;;;6.55;3.28;;;;;;;;;;5049846;28;20209;-73
2023/09/25 06:12:13;;;;;;;3.13;2.95;;;;;;;;;;5047621;28;20231;-73
2023/09/25 06:14:41;;;;;;;3.78;3.33;;;;;;;;;;5048509;28;20223;-73
2023/09/25 06:17:09;;;;;;;6.30;3.13;;;;;;;;;;5048039;28;20205;-73
2023/09/25 06:19:35;;;;;;;7.88;4.05;;;;;;;;;;5048489;28;20253;-73
2023/09/25 06:22:01;;;;;;;6.15;3.40;;;;;;;;;;5048454;28;20212;-73
2023/09/25 06:24:28;;;;;;;3.88;3.58;;;;;;;;;;5049089;28;20205;-73
2023/09/25 06:26:54;;;;;;;4.43;3.38;;;;;;;;;;5048946;28;20229;-73
2023/09/25 06:29:22;;;;;;;3.65;3.15;;;;;;;;;;5048294;28;20216;-71
2023/09/25 06:31:49;;;;;;;3.67;3.30;;;;;;;;;;5048425;28;20267;-72
2023/09/25 06:34:16;;;;;;;4.32;3.92;;;;;;;;;;5045149;28;20224;-71
2023/09/25 06:36:42;;;;;;;4.32;3.30;;;;;;;;;;5044768;28;20323;-72
2023/09/25 06:39:09;;;;;;;5.20;3.58;;;;;;;;;;5044749;28;20243;-72
2023/09/25 06:41:36;;;;;;;4.63;3.33;;;;;;;;;;5045239;28;20658;-72
2023/09/25 06:44:04;;;;;;;4.03;3.58;;;;;;;;;;5045272;28;20232;-72
2023/09/25 06:46:30;;;;;;;6.80;4.32;;;;;;;;;;5044999;28;20228;-70
2023/09/25 06:48:58;;;;;;;10.38;4.50;;;;;;;;;;5044862;28;20945;-72
2023/09/25 06:51:25;;;;;;;11.52;5.75;;;;;;;;;;5044387;28;20267;-70
2023/09/25 06:53:51;;;;;;;7.15;5.28;;;;;;;;;;5041681;28;20209;-68
2023/09/25 06:56:17;;;;;;;11.38;5.38;;;;;;;;;;5049196;28;20320;-71
2023/09/25 06:58:43;;;;;;;11.05;6.38;;;;;;;;;;5049428;28;20209;-70
2023/09/25 07:01:10;;;;;;;10.88;6.25;;;;;;;;;;5049041;28;21472;-74
2023/09/25 07:03:36;;;;;;;9.65;6.53;;;;;;;;;;5049339;28;20674;-74
2023/09/25 07:06:04;;;;;;;13.68;7.70;;;;;;;;;;5047160;28;20267;-72
2023/09/25 07:08:31;;;;;;;17.85;7.18;;;;;;;;;;5047728;28;20267;-71
2023/09/25 07:10:58;;;;;;;15.95;7.70;;;;;;;;;;5048575;28;21500;-69
2023/09/25 07:13:24;;;;;;;11.43;7.28;;;;;;;;;;5049052;28;20207;-68
2023/09/25 07:15:50;;;;;;;10.45;6.68;;;;;;;;;;5048663;28;20247;-71
2023/09/25 07:18:17;;;;;;;14.00;7.28;;;;;;;;;;5048877;28;20207;-70
2023/09/25 07:20:45;;;;;;;15.18;7.70;;;;;;;;;;5048497;28;20209;-68
2023/09/25 07:23:13;;;;;;;11.25;7.15;;;;;;;;;;5048858;28;20209;-73
2023/09/25 07:25:39;;;;;;;13.02;7.82;;;;;;;;;;5049276;28;20225;-72
2023/09/25 07:28:05;;;;;;;18.20;8.70;;;;;;;;;;5050225;28;20606;-69
2023/09/25 07:30:32;;;;;;;16.55;8.57;;;;;;;;;;5048636;28;20201;-75
2023/09/25 07:32:58;;;;;;;15.93;8.93;;;;;;;;;;5049545;28;20205;-69
2023/09/25 07:35:25;;;;;;;17.92;9.40;;;;;;;;;;5049281;28;20268;-71
2023/09/25 07:37:51;;;;;;;19.83;10.90;;;;;;;;;;5047803;28;20205;-72
2023/09/25 07:40:19;;;;;;;21.35;10.85;;;;;;;;;;5048586;28;20216;-70
2023/09/25 07:42:44;;;;;;;20.38;10.52;;;;;;;;;;5048615;28;20216;-71
2023/09/25 07:45:22;;;;;;;18.80;10.18;;;;;;;;;;5048023;28;20231;-71
2023/09/25 07:47:48;;;;;;;17.63;10.98;;;;;;;;;;5047408;28;20236;-71
2023/09/25 07:50:19;;;;;;;22.67;10.60;;;;;;;;;;5047678;28;20216;-72
2023/09/25 07:52:45;;;;;;;21.95;11.05;;;;;;;;;;5043697;28;20237;-71
2023/09/25 07:55:12;;;;;;;18.75;10.80;;;;;;;;;;5047752;28;20669;-71
2023/09/25 07:57:40;;;;;;;17.52;11.48;;;;;;;;;;5047535;28;20201;-74
2023/09/25 08:00:24;;;;;;;22.50;10.43;;;;;;;;;;5047553;28;20266;-72
2023/09/25 08:02:52;;;;;;;20.15;11.43;;;;;;;;;;5043706;28;20205;-72
2023/09/25 08:05:18;;;;;;;20.27;10.95;;;;;;;;;;5047275;28;20446;-71
2023/09/25 08:07:45;;;;;;;18.25;10.68;;;;;;;;;;5047551;28;20225;-71
2023/09/25 08:10:11;;;;;;;17.85;9.73;;;;;;;;;;5047823;28;20212;-72
2023/09/25 08:12:38;;;;;;;17.25;9.75;;;;;;;;;;5048186;28;20201;-72
2023/09/25 08:15:06;;;;;;;25.23;11.82;;;;;;;;;;5047376;28;20229;-69
2023/09/25 08:17:33;;;;;;;18.70;8.80;;;;;;;;;;5047598;28;20290;-72
2023/09/25 08:19:59;;;;;;;15.07;6.82;;;;;;;;;;5048082;28;20209;-71
2023/09/25 08:22:26;;;;;;;11.30;6.07;;;;;;;;;;5047314;28;20229;-71
2023/09/25 08:24:52;;;;;;;9.98;6.03;;;;;;;;;;5047295;28;20212;-69
2023/09/25 08:27:20;;;;;;;12.50;6.50;;;;;;;;;;5048054;28;20216;-70
2023/09/25 08:29:47;;;;;;;7.82;5.10;;;;;;;;;;5047919;28;20213;-73
2023/09/25 08:32:15;;;;;;;8.65;5.07;;;;;;;;;;5047316;28;20232;-70
2023/09/25 08:34:41;;;;;;;9.75;5.43;;;;;;;;;;5047365;28;20200;-70
2023/09/25 08:37:07;;;;;;;10.60;5.20;;;;;;;;;;5047145;28;20279;-70
2023/09/25 08:39:34;;;;;;;7.05;4.72;;;;;;;;;;5047530;28;20201;-70
2023/09/25 08:42:00;;;;;;;5.18;4.43;;;;;;;;;;5047612;28;20212;-71
2023/09/25 08:44:27;;;;;;;9.75;4.68;;;;;;;;;;5047534;28;20208;-70
2023/09/25 08:46:53;;;;;;;11.30;5.00;;;;;;;;;;5047662;28;20229;-74
2023/09/25 08:49:21;;;;;;;8.95;5.72;;;;;;;;;;5047355;28;20231;-71
2023/09/25 08:51:48;;;;;;;14.18;5.13;;;;;;;;;;5047286;28;20220;-72
2023/09/25 08:54:14;;;;;;;12.75;5.10;;;;;;;;;;5047372;28;20556;-72
2023/09/25 08:56:40;;;;;;;7.25;4.88;;;;;;;;;;5047187;28;20225;-70
2023/09/25 08:59:06;;;;;;;7.05;3.88;;;;;;;;;;5046338;28;20669;-72
2023/09/25 09:01:32;;;;;;;9.57;3.60;;;;;;;;;;5047334;28;20205;-72
2023/09/25 09:03:59;;;;;;;6.45;4.07;;;;;;;;;;5047369;28;20200;-72
2023/09/25 09:06:27;;;;;;;4.35;3.53;;;;;;;;;;5046857;28;20709;-72
2023/09/25 09:08:54;;;;;;;9.68;4.30;;;;;;;;;;5046783;28;20308;-71
2023/09/25 09:11:20;;;;;;;8.55;4.20;;;;;;;;;;5047178;28;21007;-69
2023/09/25 09:13:47;;;;;;;5.28;3.72;;;;;;;;;;5046628;28;20269;-70
2023/09/25 09:16:14;;;;;;;5.45;3.75;;;;;;;;;;5047214;28;20224;-70
2023/09/25 09:18:41;;;;;;;11.50;4.18;;;;;;;;;;5046934;28;20201;-71
2023/09/25 09:21:07;;;;;;;4.38;3.03;;;;;;;;;;5046824;28;20552;-72
2023/09/25 09:23:42;;;;;;;4.15;3.10;;;;;;;;;;5046745;28;20295;-70
2023/09/25 09:26:09;;;;;;;4.40;2.72;;;;;;;;;;5045857;28;20569;-70
2023/09/25 09:28:36;;;;;;;4.50;2.83;;;;;;;;;;5046948;28;20228;-73
2023/09/25 09:31:07;;;;;;;4.03;3.00;;;;;;;;;;5047514;28;20202;-73
2023/09/25 09:33:36;;;;;;;5.97;3.10;;;;;;;;;;5046093;28;20236;-71
2023/09/25 09:36:02;;;;;;;6.90;2.88;;;;;;;;;;5050800;28;20232;-71
2023/09/25 09:38:28;;;;;;;4.07;2.88;;;;;;;;;;5051071;28;20661;-72
2023/09/25 09:40:56;;;;;;;5.10;2.90;;;;;;;;;;5050336;28;20211;-72
2023/09/25 09:43:23;;;;;;;5.00;2.85;;;;;;;;;;5050515;28;21106;-73
2023/09/25 09:45:50;;;;;;;8.90;2.95;;;;;;;;;;5050353;28;20632;-72
2023/09/25 09:48:18;;;;;;;2.80;2.55;;;;;;;;;;5050155;28;20738;-72
2023/09/25 09:50:45;;;;;;;2.72;2.47;;;;;;;;;;5050988;28;20209;-73
2023/09/25 09:53:12;;;;;;;6.70;2.30;;;;;;;;;;5049817;28;20205;-72
2023/09/25 09:55:39;;;;;;;4.78;2.08;;;;;;;;;;5051287;28;20233;-72
2023/09/25 09:58:07;;;;;;;2.65;2.45;;;;;;;;;;5050388;28;20201;-74
2023/09/25 10:00:33;;;;;;;2.70;2.17;;;;;;;;;;5047952;28;20209;-71
2023/09/25 10:03:00;;;;;;;4.63;2.35;;;;;;;;;;5050172;28;20292;-70
2023/09/25 10:05:27;;;;;;;3.00;2.15;;;;;;;;;;5050078;28;20229;-70
2023/09/25 10:08:05;;;;;;;2.05;1.85;;;;;;;;;;5049536;28;20205;-70
2023/09/25 10:10:31;;;;;;;1.83;1.73;;;;;;;;;;5050688;28;20291;-70
2023/09/25 10:12:58;;;;;;;3.30;2.10;;;;;;;;;;5050071;28;20224;-68
2023/09/25 10:15:26;;;;;;;4.75;1.95;;;;;;;;;;5049801;28;20232;-70
2023/09/25 10:17:53;;;;;;;3.17;2.10;;;;;;;;;;5049559;28;20228;-70
2023/09/25 10:20:32;;;;;;;4.00;1.85;;;;;;;;;;5049823;28;20209;-69
2023/09/25 10:22:59;;;;;;;3.72;2.13;;;;;;;;;;5049666;28;20291;-71
2023/09/25 10:25:26;;;;;;;2.00;1.90;;;;;;;;;;5049383;28;20229;-70
2023/09/25 10:27:53;;;;;;;4.32;2.10;;;;;;;;;;5050005;28;20208;-69
2023/09/25 10:30:20;;;;;;;4.10;2.28;;;;;;;;;;5049813;28;20237;-70
2023/09/25 10:32:52;;;;;;;3.58;1.83;;;;;;;;;;5049238;28;20205;-70
2023/09/25 10:35:37;;;;;;;6.95;2.10;;;;;;;;;;5049464;28;20233;-69
2023/09/25 10:38:07;;;;;;;1.92;1.80;;;;;;;;;;5049182;28;20706;-69
2023/09/25 10:40:35;;;;;;;3.17;1.80;;;;;;;;;;5048869;28;20209;-71
2023/09/25 10:43:02;;;;;;;4.45;1.40;;;;;;;;;;5049608;28;20296;-69
2023/09/25 10:45:28;;;;;;;2.40;1.35;;;;;;;;;;5049385;28;20233;-68
2023/09/25 10:47:56;;;;;;;1.20;1.17;;;;;;;;;;5049487;28;20585;-70
2023/09/25 10:50:22;;;;;;;2.92;2.28;;;;;;;;;;5049449;28;20228;-70
2023/09/25 10:52:49;;;;;;;3.92;2.10;;;;;;;;;;5049215;28;20648;-72
2023/09/25 10:55:15;;;;;;;4.40;2.25;;;;;;;;;;5049211;28;20228;-70
2023/09/25 10:57:42;;;;;;;4.00;2.00;;;;;;;;;;5048926;28;20221;-70
2023/09/25 11:00:15;;;;;;;4.18;1.90;;;;;;;;;;5048840;28;20609;-69
2023/09/25 11:02:41;;;;;;;3.72;1.88;;;;;;;;;;5043292;28;20205;-71
2023/09/25 11:05:10;;;;;;;1.75;1.65;;;;;;;;;;5048555;28;20231;-70
2023/09/25 11:07:36;;;;;;;3.65;2.00;;;;;;;;;;5048385;28;20207;-70
2023/09/25 11:10:03;;;;;;;2.30;2.10;;;;;;;;;;5048856;28;20267;-69
2023/09/25 11:12:30;;;;;;;3.38;1.70;;;;;;;;;;5048722;28;20225;-71
2023/09/25 11:14:57;;;;;;;2.17;1.73;;;;;;;;;;5048288;28;20744;-69
2023/09/25 11:17:23;;;;;;;1.92;1.83;;;;;;;;;;5048245;28;20726;-70
2023/09/25 11:19:52;;;;;;;2.10;1.95;;;;;;;;;;5048657;28;20538;-68
2023/09/25 11:22:21;;;;;;;4.43;1.92;;;;;;;;;;5048394;28;20229;-74
2023/09/25 11:24:53;;;;;;;1.90;1.80;;;;;;;;;;5045753;28;20211;-68
2023/09/25 11:27:19;;;;;;;1.88;1.58;;;;;;;;;;5044670;28;20623;-69
2023/09/25 11:29:48;;;;;;;1.65;1.15;;;;;;;;;;5045087;28;20324;-70
2023/09/25 11:32:16;;;;;;;5.45;1.70;;;;;;;;;;5045414;28;20584;-67
2023/09/25 11:34:43;;;;;;;1.80;1.33;;;;;;;;;;5044403;28;20212;-70
2023/09/25 11:37:16;;;;;;;5.60;1.80;;;;;;;;;;5044868;28;20220;-70
2023/09/25 11:39:45;;;;;;;2.67;1.88;;;;;;;;;;5039701;28;20231;-67
2023/09/25 11:42:11;;;;;;;5.43;1.70;;;;;;;;;;5044851;28;20212;-68
2023/09/25 11:44:37;;;;;;;2.00;1.80;;;;;;;;;;5045185;28;20236;-70
2023/09/25 11:47:05;;;;;;;2.00;1.90;;;;;;;;;;5045786;28;20228;-68
2023/09/25 11:49:31;;;;;;;1.50;1.40;;;;;;;;;;5044391;28;20316;-69
2023/09/25 11:51:58;;;;;;;2.60;1.50;;;;;;;;;;5044544;28;20704;-67
2023/09/25 11:54:24;;;;;;;1.33;1.27;;;;;;;;;;5043582;28;20205;-70
2023/09/25 11:56:52;;;;;;;3.15;1.70;;;;;;;;;;5044195;28;20232;-69
2023/09/25 11:59:18;;;;;;;1.70;1.50;;;;;;;;;;5044247;28;20444;-74
2023/09/25 12:01:45;;;;;;;1.90;1.25;;;;;;;;;;5044918;28;20217;-75
2023/09/25 12:04:12;;;;;;;1.30;1.20;;;;;;;;;;5044704;28;20212;-74
2023/09/25 12:06:39;;;;;;;3.20;1.10;;;;;;;;;;5044283;28;20781;-74
2023/09/25 12:09:11;;;;;;;1.52;1.17;;;;;;;;;;5043631;28;20240;-74
2023/09/25 12:11:37;;;;;;;2.53;1.13;;;;;;;;;;5044439;28;20708;-74
2023/09/25 12:14:05;;;;;;;1.80;1.38;;;;;;;;;;5044008;28;20220;-74
2023/09/25 12:16:31;;;;;;;1.75;1.23;;;;;;;;;;5043949;28;20229;-74
2023/09/25 12:18:58;;;;;;;1.10;1.08;;;;;;;;;;5043812;28;20212;-74
2023/09/25 12:21:25;;;;;;;2.15;1.10;;;;;;;;;;5044552;28;20563;-74
2023/09/25 12:23:51;;;;;;;1.10;1.10;;;;;;;;;;5043913;28;20299;-74
2023/09/25 12:26:17;;;;;;;1.75;1.27;;;;;;;;;;5043846;28;20708;-74
2023/09/25 12:28:44;;;;;;;1.40;0.95;;;;;;;;;;5044315;28;20519;-74
2023/09/25 12:31:11;;;;;;;1.30;1.20;;;;;;;;;;5044571;28;20246;-74
2023/09/25 12:33:38;;;;;;;3.55;1.00;;;;;;;;;;5044366;28;20209;-74
2023/09/25 12:36:04;;;;;;;0.98;0.98;;;;;;;;;;5043947;28;20236;-74
2023/09/25 12:38:30;;;;;;;1.20;1.00;;;;;;;;;;5043502;28;20873;-74
2023/09/25 12:40:57;;;;;;;1.00;1.00;;;;;;;;;;5044102;28;20211;-74
2023/09/25 12:43:23;;;;;;;1.38;1.02;;;;;;;;;;5043948;28;20252;-74
2023/09/25 12:45:49;;;;;;;1.85;0.90;;;;;;;;;;5044123;28;20237;-74
2023/09/25 12:48:18;;;;;;;1.25;1.15;;;;;;;;;;5044379;28;20204;-74
2023/09/25 12:50:44;;;;;;;1.13;1.02;;;;;;;;;;5044465;28;20232;-74
2023/09/25 12:53:10;;;;;;;3.05;1.20;;;;;;;;;;5044038;28;20586;-74
2023/09/25 12:55:37;;;;;;;1.20;1.10;;;;;;;;;;5043830;28;20239;-74
2023/09/25 12:58:04;;;;;;;1.00;1.00;;;;;;;;;;5043649;28;20208;-74
2023/09/25 13:00:30;;;;;;;1.00;1.00;;;;;;;;;;5044057;28;20207;-74
2023/09/25 13:02:56;;;;;;;1.10;1.05;;;;;;;;;;5043776;28;20219;-74
2023/09/25 13:05:24;;;;;;;0.80;0.80;;;;;;;;;;5043677;28;20231;-74
2023/09/25 13:07:50;;;;;;;1.25;1.20;;;;;;;;;;5046080;28;20208;-74
2023/09/25 13:10:17;;;;;;;1.02;0.85;;;;;;;;;;5048126;28;20231;-74
2023/09/25 13:12:43;;;;;;;1.00;0.98;;;;;;;;;;5047656;28;20208;-74
2023/09/25 13:15:10;;;;;;;1.30;1.30;;;;;;;;;;5047748;28;20221;-75
2023/09/25 13:17:37;;;;;;;1.13;1.10;;;;;;;;;;5047431;28;20212;-75
2023/09/25 13:20:07;;;;;;;0.93;0.90;;;;;;;;;;5047842;28;20209;-75
2023/09/25 13:22:35;;;;;;;0.80;0.80;;;;;;;;;;5048138;28;20760;-75
2023/09/25 13:25:01;;;;;;;0.80;0.80;;;;;;;;;;5048000;28;20220;-75
2023/09/25 13:27:27;;;;;;;1.17;1.08;;;;;;;;;;5047169;28;20221;-75
2023/09/25 13:29:54;;;;;;;1.20;1.10;;;;;;;;;;5047997;28;20231;-75
2023/09/25 13:32:20;;;;;;;1.00;1.00;;;;;;;;;;5047667;28;20216;-75
2023/09/25 13:34:46;;;;;;;0.88;0.88;;;;;;;;;;5047130;28;20219;-75
2023/09/25 13:37:13;;;;;;;2.97;0.93;;;;;;;;;;5047662;28;20220;-75
2023/09/25 13:39:40;;;;;;;1.23;1.13;;;;;;;;;;5047964;28;20197;-75
2023/09/25 13:42:06;;;;;;;1.95;1.00;;;;;;;;;;5047497;28;20209;-75
2023/09/25 13:44:34;;;;;;;1.10;1.10;;;;;;;;;;5047461;28;20212;-75
2023/09/25 13:47:00;;;;;;;0.93;0.93;;;;;;;;;;5047460;28;20983;-75
2023/09/25 13:49:26;;;;;;;0.93;0.93;;;;;;;;;;5046630;28;20225;-74
2023/09/25 13:51:53;;;;;;;0.80;0.80;;;;;;;;;;5047520;28;20212;-74
2023/09/25 13:54:19;;;;;;;0.98;0.90;;;;;;;;;;5047317;28;20204;-74
2023/09/25 13:56:47;;;;;;;2.65;1.05;;;;;;;;;;5047314;28;20252;-74
2023/09/25 13:59:14;;;;;;;1.55;1.00;;;;;;;;;;5047046;28;20201;-75
2023/09/25 14:01:40;;;;;;;1.10;1.10;;;;;;;;;;5047083;28;20254;-75
2023/09/25 14:04:07;;;;;;;2.25;1.15;;;;;;;;;;5046918;28;20581;-75
2023/09/25 14:06:33;;;;;;;0.93;0.93;;;;;;;;;;5046509;28;20221;-75
2023/09/25 14:08:59;;;;;;;0.95;0.95;;;;;;;;;;5046616;28;20209;-75
2023/09/25 14:11:25;;;;;;;0.82;0.77;;;;;;;;;;5046453;28;20216;-75
2023/09/25 14:13:53;;;;;;;1.20;1.10;;;;;;;;;;5046869;28;20217;-75
2023/09/25 14:16:19;;;;;;;1.15;1.00;;;;;;;;;;5046727;28;20224;-75
2023/09/25 14:18:45;;;;;;;0.90;0.90;;;;;;;;;;5045978;28;20685;-75
2023/09/25 14:21:12;;;;;;;1.75;1.10;;;;;;;;;;5046071;28;20205;-74
2023/09/25 14:23:39;;;;;;;0.95;0.93;;;;;;;;;;5046735;28;20679;-74
2023/09/25 14:26:05;;;;;;;1.13;1.02;;;;;;;;;;5045835;28;20664;-74
2023/09/25 14:28:31;;;;;;;2.25;0.93;;;;;;;;;;5046466;28;20205;-74
2023/09/25 14:30:59;;;;;;;1.17;1.17;;;;;;;;;;5046921;28;20221;-74
2023/09/25 14:33:26;;;;;;;1.08;1.08;;;;;;;;;;5045863;28;20208;-74
2023/09/25 14:35:52;;;;;;;1.10;0.90;;;;;;;;;;5046354;28;20563;-75
2023/09/25 14:38:18;;;;;;;2.03;1.17;;;;;;;;;;5045690;28;20205;-75
2023/09/25 14:40:44;;;;;;;1.33;0.90;;;;;;;;;;5046800;28;20562;-75